Time;durP1;ratioP1;P1;durP2;ratioP2;P2;SDS_P1;SDS_P2;PMS_P1;PMS_P2;Temp;Humidity;BMP_temperature;BMP_pressure;BME280_temperature;BME280_humidity;BME280_pressure;Samples;Min_cycle;Max_cycle;Signal;HPM_P1;HPM_P2
2021/01/25 00:00:21;;;;;;;54.47;28.33;;;0.40;95.10;;;;;;4972663;28;20294;-81
2021/01/25 00:03:06;;;;;;;60.57;28.97;;;0.40;95.10;;;;;;4976569;28;20565;-80
2021/01/25 00:05:36;;;;;;;58.80;28.67;;;0.30;95.00;;;;;;4973902;28;20234;-79
2021/01/25 00:08:04;;;;;;;56.00;30.13;;;0.30;95.00;;;;;;4979558;28;20202;-80
2021/01/25 00:10:32;;;;;;;57.43;30.73;;;0.30;95.10;;;;;;4981781;28;20232;-79
2021/01/25 00:13:00;;;;;;;56.20;30.70;;;0.20;95.00;;;;;;4977193;28;20207;-81
2021/01/25 00:15:31;;;;;;;57.33;29.33;;;0.30;95.00;;;;;;4979996;28;20531;-81
2021/01/25 00:17:58;;;;;;;60.17;31.37;;;0.30;95.00;;;;;;4969706;28;20204;-80
2021/01/25 00:20:27;;;;;;;57.47;30.67;;;0.40;95.10;;;;;;4966713;28;20204;-80
2021/01/25 00:22:55;;;;;;;64.80;31.37;;;0.40;95.10;;;;;;4979752;28;20286;-79
2021/01/25 00:25:23;;;;;;;62.97;31.83;;;0.40;95.10;;;;;;4978969;28;20208;-80
2021/01/25 00:27:51;;;;;;;60.07;29.57;;;0.50;95.10;;;;;;4979471;28;20266;-81
2021/01/25 00:30:19;;;;;;;62.30;31.50;;;0.60;95.20;;;;;;4977165;28;20211;-81
2021/01/25 00:32:47;;;;;;;57.97;30.03;;;0.60;95.20;;;;;;4971482;28;20613;-80
2021/01/25 00:35:15;;;;;;;59.03;30.97;;;0.70;95.20;;;;;;4979527;28;20274;-80
2021/01/25 00:37:44;;;;;;;54.83;29.83;;;0.80;95.20;;;;;;4960994;28;20227;-81
2021/01/25 00:40:13;;;;;;;58.07;30.70;;;0.70;95.10;;;;;;4984457;28;20782;-79
2021/01/25 00:42:40;;;;;;;54.10;29.33;;;0.70;95.10;;;;;;4978290;28;20209;-80
2021/01/25 00:45:09;;;;;;;56.43;29.87;;;0.70;95.00;;;;;;4967876;28;20986;-81
2021/01/25 00:47:36;;;;;;;51.80;28.53;;;0.60;94.90;;;;;;4975108;28;20204;-80
2021/01/25 00:50:06;;;;;;;51.93;29.07;;;0.50;94.90;;;;;;4975625;28;20207;-81
2021/01/25 00:52:34;;;;;;;56.07;29.80;;;0.50;94.90;;;;;;4982059;28;20226;-81
2021/01/25 00:55:03;;;;;;;46.43;26.67;;;0.50;94.80;;;;;;4987271;28;20206;-83
2021/01/25 00:57:33;;;;;;;46.43;28.07;;;0.40;94.80;;;;;;4983814;28;20227;-81
2021/01/25 01:00:01;;;;;;;51.50;28.30;;;0.40;94.80;;;;;;4970213;28;20310;-80
2021/01/25 01:02:29;;;;;;;54.00;28.43;;;0.40;94.80;;;;;;5002160;28;20179;-83
2021/01/25 01:04:57;;;;;;;52.73;29.07;;;0.50;94.90;;;;;;4994406;28;20227;-81
2021/01/25 01:07:24;;;;;;;49.00;27.07;;;0.50;94.90;;;;;;4993486;28;20295;-80
2021/01/25 01:09:53;;;;;;;49.53;28.30;;;0.50;94.90;;;;;;5004225;28;20198;-81
2021/01/25 01:12:21;;;;;;;49.27;28.27;;;0.60;94.90;;;;;;4996250;28;20306;-80
2021/01/25 01:14:49;;;;;;;47.77;26.17;;;0.60;94.90;;;;;;5006080;28;20263;-80
2021/01/25 01:17:16;;;;;;;45.53;26.67;;;0.70;95.00;;;;;;4998254;28;20218;-80
2021/01/25 01:19:44;;;;;;;45.20;25.50;;;0.70;95.00;;;;;;4991976;28;20184;-80
2021/01/25 01:22:12;;;;;;;47.87;26.87;;;0.80;95.00;;;;;;4986649;28;20202;-81
2021/01/25 01:24:40;;;;;;;39.70;24.30;;;0.80;94.90;;;;;;4981621;28;20290;-81
2021/01/25 01:27:07;;;;;;;42.63;25.17;;;0.90;94.90;;;;;;4977438;28;20259;-80
2021/01/25 01:29:36;;;;;;;39.70;24.20;;;1.00;94.80;;;;;;4995022;28;20211;-80
2021/01/25 01:32:04;;;;;;;43.23;26.23;;;0.90;94.70;;;;;;4995577;28;20216;-81
2021/01/25 01:34:32;;;;;;;37.53;23.30;;;1.00;94.60;;;;;;4990492;28;20213;-80
2021/01/25 01:36:59;;;;;;;38.87;23.97;;;1.10;94.60;;;;;;4996125;28;20201;-83
2021/01/25 01:39:27;;;;;;;43.20;24.60;;;1.00;94.50;;;;;;4988709;28;20650;-81
2021/01/25 01:41:54;;;;;;;38.87;23.73;;;1.00;94.40;;;;;;4997007;28;20196;-82
2021/01/25 01:44:22;;;;;;;39.40;22.90;;;1.00;94.20;;;;;;4998252;28;20230;-80
2021/01/25 01:46:50;;;;;;;41.97;23.00;;;1.10;94.30;;;;;;4995872;28;20202;-78
2021/01/25 01:49:19;;;;;;;37.40;22.93;;;1.10;94.30;;;;;;5003935;28;20240;-79
2021/01/25 01:51:47;;;;;;;39.77;22.37;;;1.10;94.30;;;;;;4995966;28;20259;-81
2021/01/25 01:54:16;;;;;;;41.13;22.27;;;1.10;94.30;;;;;;4985857;28;20235;-81
2021/01/25 01:56:44;;;;;;;39.00;23.30;;;1.10;94.20;;;;;;4996567;28;20477;-81
2021/01/25 01:59:12;;;;;;;40.77;23.67;;;1.10;94.20;;;;;;4985793;28;20627;-80
2021/01/25 02:01:39;;;;;;;36.50;22.07;;;1.30;94.20;;;;;;4987860;28;20199;-82
2021/01/25 02:04:11;;;;;;;38.23;22.73;;;1.30;94.10;;;;;;4983599;28;20217;-81
2021/01/25 02:06:40;;;;;;;37.47;21.97;;;1.30;93.80;;;;;;4974478;28;20215;-80
2021/01/25 02:09:08;;;;;;;36.43;22.23;;;1.60;93.70;;;;;;4999008;28;20246;-81
2021/01/25 02:11:37;;;;;;;38.53;22.53;;;1.40;93.50;;;;;;4990968;28;20228;-78
2021/01/25 02:14:06;;;;;;;36.63;21.60;;;1.40;93.40;;;;;;4990940;28;20196;-81
2021/01/25 02:16:41;;;;;;;31.17;21.00;;;1.40;93.40;;;;;;5000034;28;20188;-82
2021/01/25 02:19:14;;;;;;;35.70;20.93;;;1.40;93.30;;;;;;4998867;28;20242;-80
2021/01/25 02:21:52;;;;;;;34.07;21.27;;;1.40;93.30;;;;;;4997792;28;20179;-80
2021/01/25 02:24:29;;;;;;;35.10;20.43;;;1.60;93.30;;;;;;5003832;28;20204;-81
2021/01/25 02:27:35;;;;;;;36.73;20.47;;;1.40;93.30;;;;;;4996510;28;20206;-79
2021/01/25 02:30:07;;;;;;;34.87;21.07;;;1.40;93.30;;;;;;4996179;28;20200;-81
2021/01/25 02:32:36;;;;;;;34.37;20.77;;;1.40;93.20;;;;;;4980709;28;20235;-80
2021/01/25 02:35:08;;;;;;;34.20;21.73;;;1.30;93.10;;;;;;4986187;28;20231;-81
2021/01/25 02:37:38;;;;;;;34.70;20.73;;;1.40;93.20;;;;;;4999276;28;20205;-80
2021/01/25 02:40:10;;;;;;;31.77;20.90;;;1.40;93.30;;;;;;4972603;28;21193;-80
2021/01/25 02:42:39;;;;;;;32.27;20.23;;;1.40;93.30;;;;;;4983456;28;20204;-80
2021/01/25 02:45:10;;;;;;;34.20;20.57;;;1.50;93.40;;;;;;4978457;28;20212;-80
2021/01/25 02:47:38;;;;;;;34.43;19.87;;;1.50;93.20;;;;;;4979217;28;20429;-79
2021/01/25 02:50:07;;;;;;;33.03;20.23;;;1.50;93.20;;;;;;4983888;28;20207;-82
2021/01/25 02:52:35;;;;;;;32.13;19.77;;;1.50;93.20;;;;;;4972865;28;20224;-81
2021/01/25 02:55:04;;;;;;;40.53;21.03;;;1.50;93.20;;;;;;4984068;28;20208;-80
2021/01/25 02:57:34;;;;;;;30.97;20.50;;;1.50;93.20;;;;;;4992580;28;20398;-80
2021/01/25 03:00:03;;;;;;;33.87;20.63;;;1.50;93.20;;;;;;4979932;28;20444;-78
2021/01/25 03:02:33;;;;;;;30.83;19.50;;;1.50;93.20;;;;;;4985502;28;20200;-81
2021/01/25 03:05:01;;;;;;;37.93;20.63;;;1.50;93.10;;;;;;4973388;28;20287;-81
2021/01/25 03:07:28;;;;;;;32.40;21.03;;;1.50;93.10;;;;;;4974758;28;20238;-79
2021/01/25 03:10:00;;;;;;;35.27;21.20;;;1.50;93.10;;;;;;4975068;28;20205;-81
2021/01/25 03:12:28;;;;;;;34.37;20.10;;;1.50;93.10;;;;;;4982323;28;20231;-81
2021/01/25 03:14:56;;;;;;;34.67;20.27;;;1.50;93.20;;;;;;4983403;28;20757;-80
2021/01/25 03:17:24;;;;;;;32.97;19.40;;;1.50;93.20;;;;;;4976357;28;20207;-81
2021/01/25 03:19:52;;;;;;;36.07;19.13;;;1.50;93.20;;;;;;4987281;28;20223;-80
2021/01/25 03:22:20;;;;;;;30.03;19.00;;;1.40;93.10;;;;;;4984686;28;20201;-80
2021/01/25 03:24:47;;;;;;;29.93;19.43;;;1.50;93.20;;;;;;4977675;28;20216;-79
2021/01/25 03:27:14;;;;;;;30.03;19.80;;;1.50;93.20;;;;;;4975422;28;20196;-81
2021/01/25 03:29:42;;;;;;;32.33;20.20;;;1.50;93.20;;;;;;4980499;28;21162;-79
2021/01/25 03:32:09;;;;;;;31.20;19.40;;;1.50;93.20;;;;;;4970978;28;20256;-80
2021/01/25 03:34:37;;;;;;;32.73;19.50;;;1.60;93.20;;;;;;4982208;28;20219;-79
2021/01/25 03:37:06;;;;;;;31.60;19.97;;;1.60;93.20;;;;;;4977396;28;20224;-81
2021/01/25 03:39:33;;;;;;;28.40;18.97;;;1.60;93.10;;;;;;4979126;28;20204;-79
2021/01/25 03:42:01;;;;;;;31.93;20.70;;;1.60;93.10;;;;;;4977207;28;20212;-81
2021/01/25 03:44:30;;;;;;;34.07;20.93;;;1.60;93.10;;;;;;4974801;28;20308;-81
2021/01/25 03:46:58;;;;;;;29.43;19.17;;;1.60;93.10;;;;;;4978531;28;20247;-80
2021/01/25 03:49:26;;;;;;;30.73;19.80;;;1.60;93.00;;;;;;4977266;28;20205;-81
2021/01/25 03:51:54;;;;;;;33.07;20.43;;;1.60;93.00;;;;;;4978234;28;20219;-81
2021/01/25 03:54:22;;;;;;;32.27;20.30;;;1.60;92.90;;;;;;4989402;28;20200;-81
2021/01/25 03:56:50;;;;;;;30.27;19.77;;;1.60;92.90;;;;;;4974246;28;20396;-82
2021/01/25 03:59:18;;;;;;;31.27;20.13;;;1.60;93.00;;;;;;4973537;28;20323;-80
2021/01/25 04:01:46;;;;;;;33.97;19.63;;;1.60;93.00;;;;;;4997048;28;20354;-81
2021/01/25 04:04:14;;;;;;;29.87;18.57;;;1.60;93.00;;;;;;4985025;28;20184;-80
2021/01/25 04:06:42;;;;;;;31.23;18.97;;;1.60;92.90;;;;;;4976290;28;20232;-80
2021/01/25 04:09:10;;;;;;;30.70;17.97;;;1.60;92.90;;;;;;4973073;28;20208;-80
2021/01/25 04:11:39;;;;;;;31.10;19.40;;;1.60;92.90;;;;;;4965900;28;20275;-80
2021/01/25 04:14:06;;;;;;;29.47;19.43;;;1.60;92.90;;;;;;4974602;28;20208;-82
2021/01/25 04:16:34;;;;;;;30.70;20.40;;;1.60;92.90;;;;;;4977663;28;20200;-81
2021/01/25 04:19:02;;;;;;;32.80;19.77;;;1.50;93.00;;;;;;4967526;28;20263;-81
2021/01/25 04:21:30;;;;;;;31.53;19.70;;;1.60;93.00;;;;;;4980749;28;20406;-81
2021/01/25 04:23:58;;;;;;;33.30;20.73;;;1.60;93.00;;;;;;4968640;28;20248;-80
2021/01/25 04:26:26;;;;;;;33.87;21.27;;;1.60;92.90;;;;;;4976181;28;20306;-80
2021/01/25 04:28:54;;;;;;;32.00;19.33;;;1.60;92.90;;;;;;4977248;28;20287;-81
2021/01/25 04:31:25;;;;;;;31.07;19.80;;;1.60;92.90;;;;;;4968233;28;20656;-83
2021/01/25 04:33:52;;;;;;;30.50;19.37;;;1.70;92.90;;;;;;4974007;28;20606;-80
2021/01/25 04:36:21;;;;;;;36.87;20.30;;;1.60;92.90;;;;;;4973298;28;20211;-80
2021/01/25 04:38:48;;;;;;;31.50;20.10;;;1.60;92.90;;;;;;4974204;28;20209;-82
2021/01/25 04:41:16;;;;;;;35.50;20.40;;;1.60;92.90;;;;;;4978756;28;20212;-81
2021/01/25 04:43:44;;;;;;;31.67;20.37;;;1.70;92.90;;;;;;4973855;28;20196;-81
2021/01/25 04:46:13;;;;;;;31.00;19.47;;;1.70;92.90;;;;;;4981704;28;20205;-80
2021/01/25 04:48:45;;;;;;;34.17;20.67;;;1.70;92.90;;;;;;4980098;28;20215;-80
2021/01/25 04:51:14;;;;;;;32.90;20.97;;;1.70;92.80;;;;;;4964063;28;20220;-80
2021/01/25 04:53:43;;;;;;;31.73;19.43;;;1.60;92.80;;;;;;4974562;28;20206;-80
2021/01/25 04:56:12;;;;;;;32.83;20.30;;;1.60;92.80;;;;;;4984404;28;20270;-80
2021/01/25 04:58:40;;;;;;;29.70;19.70;;;1.60;92.80;;;;;;4972704;28;20215;-80
2021/01/25 05:01:08;;;;;;;33.33;20.67;;;1.70;92.90;;;;;;4964247;28;20200;-80
2021/01/25 05:03:36;;;;;;;37.00;20.80;;;1.60;92.90;;;;;;4973597;28;20917;-80
2021/01/25 05:06:04;;;;;;;30.83;19.10;;;1.70;92.90;;;;;;4960475;28;20600;-81
2021/01/25 05:08:32;;;;;;;31.53;19.60;;;1.60;92.90;;;;;;4975708;28;20208;-81
2021/01/25 05:11:11;;;;;;;33.83;20.60;;;1.60;92.80;;;;;;4967676;28;20214;-81
2021/01/25 05:13:39;;;;;;;29.97;20.03;;;1.60;92.80;;;;;;4953290;28;20236;-78
2021/01/25 05:16:16;;;;;;;31.83;18.87;;;1.60;92.80;;;;;;4977548;28;20193;-81
2021/01/25 05:18:45;;;;;;;32.77;20.07;;;1.60;92.90;;;;;;4973058;28;20196;-82
2021/01/25 05:21:16;;;;;;;32.07;20.07;;;1.70;92.80;;;;;;4984835;28;20259;-81
2021/01/25 05:23:44;;;;;;;31.27;20.40;;;1.60;92.80;;;;;;4979835;28;20555;-80
2021/01/25 05:26:11;;;;;;;28.23;19.20;;;1.50;92.80;;;;;;4980153;28;20318;-81
2021/01/25 05:28:41;;;;;;;30.00;19.40;;;1.50;92.90;;;;;;4985007;28;20197;-82
2021/01/25 05:31:19;;;;;;;33.57;20.63;;;1.50;93.00;;;;;;4983563;28;20216;-82
2021/01/25 05:33:47;;;;;;;35.63;20.87;;;1.50;93.00;;;;;;4992836;28;20208;-81
2021/01/25 05:36:20;;;;;;;33.60;21.03;;;1.50;93.00;;;;;;4973162;28;20213;-82
2021/01/25 05:38:49;;;;;;;34.90;21.13;;;1.50;93.10;;;;;;4970707;28;20657;-81
2021/01/25 05:41:20;;;;;;;31.93;20.73;;;1.50;93.10;;;;;;4985144;28;20208;-80
2021/01/25 05:43:49;;;;;;;31.60;20.63;;;1.50;93.10;;;;;;4981244;28;20647;-80
2021/01/25 05:46:19;;;;;;;32.90;20.17;;;1.50;93.10;;;;;;4987898;28;20615;-79
2021/01/25 05:48:59;;;;;;;29.03;19.30;;;1.50;93.10;;;;;;4969690;28;20232;-81
2021/01/25 05:51:32;;;;;;;30.80;20.00;;;1.50;93.00;;;;;;4984269;28;20733;-81
2021/01/25 05:54:01;;;;;;;33.20;20.13;;;1.50;93.00;;;;;;4971333;28;20204;-80
2021/01/25 05:56:30;;;;;;;31.60;20.43;;;1.50;93.10;;;;;;4976236;28;20204;-80
2021/01/25 05:58:58;;;;;;;31.47;19.43;;;1.50;93.00;;;;;;4977142;28;20356;-80
2021/01/25 06:01:27;;;;;;;33.90;20.23;;;1.50;93.10;;;;;;4979398;28;20545;-80
2021/01/25 06:03:57;;;;;;;34.77;20.30;;;1.50;93.10;;;;;;4974566;28;20575;-80
2021/01/25 06:06:34;;;;;;;31.10;19.87;;;1.50;93.10;;;;;;4970533;28;20196;-81
2021/01/25 06:09:08;;;;;;;32.20;19.87;;;1.50;93.10;;;;;;4978478;28;20208;-81
2021/01/25 06:11:36;;;;;;;31.90;20.80;;;1.50;93.10;;;;;;4966302;28;20665;-79
2021/01/25 06:14:13;;;;;;;29.83;19.97;;;1.40;93.10;;;;;;4970674;28;20204;-78
2021/01/25 06:16:47;;;;;;;33.60;21.37;;;1.50;93.10;;;;;;4972644;28;20339;-80
2021/01/25 06:19:22;;;;;;;34.63;20.70;;;1.40;93.10;;;;;;4980572;28;20207;-81
2021/01/25 06:21:51;;;;;;;32.50;19.83;;;1.40;93.10;;;;;;4999932;28;20183;-81
2021/01/25 06:24:21;;;;;;;34.37;21.23;;;1.40;93.10;;;;;;4976499;28;20277;-81
2021/01/25 06:26:49;;;;;;;32.63;20.40;;;1.40;93.20;;;;;;4963593;28;20344;-80
2021/01/25 06:29:19;;;;;;;32.73;20.60;;;1.40;93.20;;;;;;4997151;28;20397;-81
2021/01/25 06:31:55;;;;;;;35.60;21.13;;;1.30;93.30;;;;;;4978515;28;20677;-80
2021/01/25 06:34:27;;;;;;;32.83;20.80;;;1.30;93.30;;;;;;4985478;28;20270;-81
2021/01/25 06:36:55;;;;;;;30.33;20.30;;;1.30;93.40;;;;;;4984344;28;20211;-80
2021/01/25 06:39:27;;;;;;;35.80;21.60;;;1.40;93.50;;;;;;4983394;28;20532;-81
2021/01/25 06:42:05;;;;;;;33.47;20.57;;;1.40;93.50;;;;;;4991373;28;20564;-81
2021/01/25 06:44:36;;;;;;;32.37;20.40;;;1.40;93.50;;;;;;4995225;28;20231;-80
2021/01/25 06:47:05;;;;;;;34.73;20.57;;;1.30;93.50;;;;;;4978934;28;20224;-79
2021/01/25 06:49:36;;;;;;;33.03;20.50;;;1.30;93.60;;;;;;4990569;28;20204;-81
2021/01/25 06:52:10;;;;;;;29.17;19.73;;;1.30;93.60;;;;;;4964456;28;20220;-82
2021/01/25 06:54:44;;;;;;;32.17;21.37;;;1.40;93.70;;;;;;4952140;28;20217;-81
2021/01/25 06:57:23;;;;;;;33.97;20.80;;;1.40;93.70;;;;;;4980817;28;20446;-82
2021/01/25 06:59:52;;;;;;;34.90;21.57;;;1.40;93.70;;;;;;4995936;28;20454;-80
2021/01/25 07:05:25;;;;;;;34.83;20.87;;;1.50;93.70;;;;;;4958650;28;20212;-80
2021/01/25 07:08:19;;;;;;;32.30;21.53;;;1.50;93.60;;;;;;4950362;28;20207;-80
2021/01/25 07:11:00;;;;;;;36.53;22.13;;;1.50;93.60;;;;;;4978473;28;20207;-81
2021/01/25 07:13:41;;;;;;;33.27;21.10;;;1.60;93.50;;;;;;4972735;28;20238;-82
2021/01/25 07:16:38;;;;;;;36.00;21.67;;;1.70;93.30;;;;;;4941191;28;20347;-80
2021/01/25 07:19:15;;;;;;;31.27;21.30;;;1.80;93.10;;;;;;4937763;28;20841;-79
2021/01/25 07:21:47;;;;;;;34.10;20.60;;;1.80;93.00;;;;;;4930124;28;20456;-78
2021/01/25 07:24:20;;;;;;;33.60;20.33;;;1.90;93.00;;;;;;4928142;28;20256;-80
2021/01/25 07:26:51;;;;;;;33.10;21.10;;;1.90;92.90;;;;;;4924183;28;20285;-80
2021/01/25 07:29:20;;;;;;;31.57;20.20;;;2.00;92.80;;;;;;4928901;28;20216;-81
2021/01/25 07:31:48;;;;;;;30.67;20.90;;;2.00;92.80;;;;;;4926324;28;20535;-80
2021/01/25 07:34:17;;;;;;;31.40;20.33;;;2.00;92.70;;;;;;4931893;28;20237;-80
2021/01/25 07:36:46;;;;;;;32.57;20.07;;;2.00;92.70;;;;;;4926140;28;20679;-80
2021/01/25 07:39:16;;;;;;;33.53;21.73;;;2.00;92.80;;;;;;4919340;28;20813;-80
2021/01/25 07:41:48;;;;;;;28.13;19.23;;;2.00;92.80;;;;;;4925505;28;20589;-81
2021/01/25 07:44:16;;;;;;;30.37;19.00;;;2.00;92.80;;;;;;4924890;28;20233;-80
2021/01/25 07:46:47;;;;;;;29.47;19.07;;;2.10;92.40;;;;;;4936334;28;20601;-81
2021/01/25 07:49:25;;;;;;;28.73;18.90;;;2.10;92.40;;;;;;4933755;28;20221;-81
2021/01/25 07:51:54;;;;;;;33.00;19.93;;;2.10;92.40;;;;;;4923051;28;20214;-80
2021/01/25 07:54:23;;;;;;;29.33;19.03;;;2.10;92.40;;;;;;4960745;28;20757;-81
2021/01/25 07:56:53;;;;;;;31.37;20.20;;;2.10;92.50;;;;;;4962850;28;20201;-80
2021/01/25 07:59:22;;;;;;;30.87;18.87;;;2.10;92.50;;;;;;4965550;28;20262;-79
2021/01/25 08:01:54;;;;;;;33.43;20.00;;;2.00;92.50;;;;;;4959981;28;20204;-79
2021/01/25 08:04:27;;;;;;;31.43;18.83;;;2.00;92.50;;;;;;4958566;28;20240;-79
2021/01/25 08:06:58;;;;;;;31.57;17.87;;;1.90;92.50;;;;;;4964979;28;20626;-80
2021/01/25 08:09:28;;;;;;;29.53;19.03;;;2.10;92.30;;;;;;4962056;28;20930;-80
2021/01/25 08:11:57;;;;;;;26.57;15.77;;;2.10;92.10;;;;;;4962257;28;20267;-81
2021/01/25 08:14:43;;;;;;;28.70;16.97;;;2.10;92.10;;;;;;4971070;28;20291;-84
2021/01/25 08:17:18;;;;;;;27.83;16.90;;;2.20;91.70;;;;;;4962904;28;20422;-81
2021/01/25 08:19:54;;;;;;;27.13;16.10;;;2.20;91.70;;;;;;4961358;28;20208;-82
2021/01/25 08:22:26;;;;;;;23.83;13.17;;;2.20;91.50;;;;;;4970442;28;20418;-83
2021/01/25 08:24:55;;;;;;;23.37;14.77;;;2.20;91.20;;;;;;4977106;28;20207;-79
2021/01/25 08:27:24;;;;;;;28.73;16.60;;;2.30;90.90;;;;;;4980754;28;20231;-81
2021/01/25 08:30:01;;;;;;;25.57;15.70;;;2.30;90.80;;;;;;4970364;28;20639;-81
2021/01/25 08:32:38;;;;;;;24.27;14.33;;;2.30;90.90;;;;;;4961295;28;20267;-80
2021/01/25 08:35:08;;;;;;;26.30;15.67;;;2.30;90.80;;;;;;4970145;28;20241;-80
2021/01/25 08:37:37;;;;;;;23.83;15.33;;;2.30;90.60;;;;;;4973568;28;20195;-79
2021/01/25 08:40:16;;;;;;;26.13;15.50;;;2.30;90.60;;;;;;4965712;28;20208;-80
2021/01/25 08:42:44;;;;;;;23.27;14.80;;;2.30;90.70;;;;;;4969549;28;20885;-81
2021/01/25 08:45:22;;;;;;;24.30;13.97;;;2.30;90.70;;;;;;4955686;28;20592;-81
2021/01/25 08:47:50;;;;;;;19.60;12.47;;;2.30;90.80;;;;;;4969131;28;20207;-80
2021/01/25 08:50:24;;;;;;;21.00;13.53;;;2.40;90.10;;;;;;4965184;28;21076;-81
2021/01/25 08:52:59;;;;;;;21.57;12.80;;;2.50;90.00;;;;;;4958456;28;20935;-80
2021/01/25 08:55:35;;;;;;;20.63;14.10;;;2.50;90.00;;;;;;4971986;28;20752;-81
2021/01/25 08:58:13;;;;;;;23.43;14.23;;;2.50;90.00;;;;;;4938605;28;20560;-78
2021/01/25 09:00:43;;;;;;;18.60;10.17;;;2.50;90.00;;;;;;4946203;28;20458;-81
2021/01/25 09:03:13;;;;;;;20.00;12.97;;;2.40;90.10;;;;;;4936043;28;20547;-80
2021/01/25 09:05:41;;;;;;;20.83;13.70;;;2.40;90.10;;;;;;4962575;28;20212;-81
2021/01/25 09:08:09;;;;;;;24.57;13.20;;;2.30;90.10;;;;;;4956139;28;20204;-81
2021/01/25 09:10:37;;;;;;;21.07;12.73;;;2.30;90.40;;;;;;4960379;28;20550;-79
2021/01/25 09:13:05;;;;;;;23.57;13.97;;;2.30;90.50;;;;;;4952957;28;20495;-81
2021/01/25 09:15:33;;;;;;;21.23;13.20;;;2.30;90.60;;;;;;4959236;28;20859;-80
2021/01/25 09:18:02;;;;;;;23.80;14.40;;;2.20;90.80;;;;;;4957404;28;21142;-81
2021/01/25 09:20:33;;;;;;;24.40;14.63;;;2.30;90.80;;;;;;4961516;28;20382;-81
2021/01/25 09:23:01;;;;;;;23.23;13.67;;;2.30;90.80;;;;;;4960991;28;20675;-81
2021/01/25 09:25:32;;;;;;;24.73;14.17;;;2.30;90.80;;;;;;4963957;28;20346;-80
2021/01/25 09:28:00;;;;;;;23.30;13.77;;;2.30;90.90;;;;;;4963175;28;20211;-80
2021/01/25 09:30:28;;;;;;;23.53;13.53;;;2.30;90.70;;;;;;4944781;28;20806;-81
2021/01/25 09:32:56;;;;;;;23.70;14.00;;;2.30;90.90;;;;;;4958914;28;21087;-81
2021/01/25 09:35:26;;;;;;;22.00;13.40;;;2.30;90.80;;;;;;4958713;28;20204;-79
2021/01/25 09:37:54;;;;;;;25.37;13.70;;;2.30;90.80;;;;;;4960086;28;20490;-81
2021/01/25 09:40:22;;;;;;;23.30;13.70;;;2.50;90.70;;;;;;4960814;28;20618;-79
2021/01/25 09:42:55;;;;;;;22.03;13.30;;;2.30;90.70;;;;;;4958933;28;20749;-82
2021/01/25 09:45:23;;;;;;;24.27;13.77;;;2.30;90.80;;;;;;4960070;28;20691;-80
2021/01/25 09:47:52;;;;;;;22.87;13.30;;;2.20;90.80;;;;;;4960621;28;20209;-80
2021/01/25 09:50:20;;;;;;;24.73;14.00;;;2.30;91.00;;;;;;4972670;28;20204;-79
2021/01/25 09:52:50;;;;;;;21.10;13.07;;;2.30;91.10;;;;;;4969519;28;20297;-81
2021/01/25 09:55:19;;;;;;;21.97;13.10;;;2.20;90.90;;;;;;4966740;28;20216;-80
2021/01/25 09:57:47;;;;;;;22.77;13.20;;;2.20;90.80;;;;;;4969501;28;20209;-80
2021/01/25 10:00:16;;;;;;;27.33;14.60;;;2.20;91.00;;;;;;4964939;28;20204;-81
2021/01/25 10:02:45;;;;;;;23.87;14.13;;;2.20;91.10;;;;;;4953150;28;20239;-80
2021/01/25 10:05:15;;;;;;;25.70;15.17;;;2.20;91.00;;;;;;4961217;28;20263;-80
2021/01/25 10:07:43;;;;;;;24.07;13.70;;;2.10;91.10;;;;;;4963942;28;20233;-80
2021/01/25 10:10:15;;;;;;;22.97;13.87;;;2.10;91.10;;;;;;4972589;28;20194;-78
2021/01/25 10:12:43;;;;;;;22.93;15.03;;;2.20;91.00;;;;;;4958623;28;20452;-79
2021/01/25 10:15:16;;;;;;;23.57;14.20;;;2.20;91.10;;;;;;4966971;28;20221;-79
2021/01/25 10:17:44;;;;;;;23.50;14.97;;;2.10;91.10;;;;;;4961045;28;20196;-80
2021/01/25 10:20:14;;;;;;;25.47;15.50;;;2.10;91.10;;;;;;4963830;28;20289;-81
2021/01/25 10:22:43;;;;;;;25.10;15.10;;;2.10;91.30;;;;;;4971854;28;20290;-81
2021/01/25 10:25:14;;;;;;;26.10;16.17;;;2.10;91.40;;;;;;4970895;28;20275;-81
2021/01/25 10:27:42;;;;;;;24.13;15.37;;;2.00;91.40;;;;;;4972546;28;20540;-79
2021/01/25 10:30:14;;;;;;;24.30;16.07;;;2.00;91.50;;;;;;4966092;28;20743;-79
2021/01/25 10:32:42;;;;;;;25.97;15.37;;;2.00;91.60;;;;;;4963612;28;20236;-79
2021/01/25 10:35:12;;;;;;;16.27;8.60;;;2.00;91.60;;;;;;4961921;28;20519;-81
2021/01/25 10:37:42;;;;;;;14.90;9.00;;;2.00;91.40;;;;;;4973085;28;21127;-81
2021/01/25 10:40:15;;;;;;;21.67;13.53;;;2.00;91.30;;;;;;4969235;28;20800;-81
2021/01/25 10:42:45;;;;;;;23.47;12.87;;;2.00;91.10;;;;;;4961366;28;20216;-81
2021/01/25 10:45:14;;;;;;;21.33;13.77;;;2.00;91.10;;;;;;4970207;28;20228;-79
2021/01/25 10:47:42;;;;;;;27.67;13.70;;;2.00;91.20;;;;;;4960433;28;20204;-77
2021/01/25 10:50:11;;;;;;;28.23;15.40;;;2.00;91.20;;;;;;4971554;28;20208;-79
2021/01/25 10:52:44;;;;;;;23.23;14.57;;;2.00;91.30;;;;;;4957747;28;20488;-80
2021/01/25 10:55:13;;;;;;;26.97;15.40;;;2.00;91.30;;;;;;4961274;28;20558;-78
2021/01/25 10:57:45;;;;;;;26.33;14.93;;;1.90;91.40;;;;;;4964695;28;20428;-79
2021/01/25 11:00:16;;;;;;;29.27;15.97;;;1.90;91.40;;;;;;4960571;28;20296;-80
2021/01/25 11:02:44;;;;;;;29.67;15.83;;;1.90;91.40;;;;;;4952370;28;20205;-79
2021/01/25 11:05:13;;;;;;;27.43;16.43;;;2.00;91.40;;;;;;4957585;28;20269;-80
2021/01/25 11:07:41;;;;;;;29.10;16.20;;;2.00;91.50;;;;;;4964625;28;20750;-79
2021/01/25 11:10:11;;;;;;;29.13;17.43;;;2.00;91.50;;;;;;4964184;28;20204;-78
2021/01/25 11:12:40;;;;;;;28.30;17.03;;;2.00;91.40;;;;;;4956913;28;20485;-78
2021/01/25 11:15:08;;;;;;;30.53;17.53;;;2.00;91.40;;;;;;4964401;28;20279;-81
2021/01/25 11:17:42;;;;;;;27.90;16.30;;;2.00;91.40;;;;;;4979648;28;20723;-81
2021/01/25 11:20:12;;;;;;;28.40;16.90;;;2.00;91.50;;;;;;4983088;28;20199;-79
2021/01/25 11:22:40;;;;;;;29.47;17.33;;;2.10;91.50;;;;;;4969272;28;20773;-79
2021/01/25 11:25:10;;;;;;;32.87;17.40;;;2.00;91.50;;;;;;4969276;28;20628;-76
2021/01/25 11:27:38;;;;;;;31.73;18.23;;;2.00;91.50;;;;;;4969460;28;20306;-80
2021/01/25 11:30:09;;;;;;;26.47;15.70;;;2.10;91.40;;;;;;4971877;28;20196;-78
2021/01/25 11:32:37;;;;;;;27.90;15.23;;;2.00;91.40;;;;;;4965089;28;20961;-81
2021/01/25 11:35:08;;;;;;;28.10;15.63;;;2.00;91.50;;;;;;4969768;28;20619;-79
2021/01/25 11:37:36;;;;;;;24.73;14.93;;;2.00;91.30;;;;;;4966789;28;20210;-79
2021/01/25 11:40:06;;;;;;;29.07;15.97;;;2.00;91.20;;;;;;4964641;28;20229;-78
2021/01/25 11:42:34;;;;;;;26.93;15.73;;;1.90;91.20;;;;;;4962293;28;20334;-81
2021/01/25 11:45:03;;;;;;;21.83;13.03;;;1.90;91.40;;;;;;4966494;28;20231;-78
2021/01/25 11:47:32;;;;;;;28.30;15.33;;;1.90;91.40;;;;;;4964362;28;21477;-79
2021/01/25 11:50:01;;;;;;;25.53;14.20;;;1.90;91.30;;;;;;4964233;28;20445;-80
2021/01/25 11:52:29;;;;;;;29.20;16.77;;;1.90;91.50;;;;;;4968435;28;20220;-76
2021/01/25 11:54:57;;;;;;;27.53;15.13;;;1.90;91.50;;;;;;4963427;28;20200;-79
2021/01/25 11:57:25;;;;;;;29.57;16.37;;;2.00;91.50;;;;;;4970698;28;20345;-79
2021/01/25 11:59:53;;;;;;;26.77;15.23;;;2.00;91.60;;;;;;4950904;28;20217;-79
2021/01/25 12:02:23;;;;;;;26.00;15.50;;;2.00;91.60;;;;;;4973785;28;20200;-78
2021/01/25 12:04:53;;;;;;;28.40;16.17;;;2.00;91.40;;;;;;4979367;28;20203;-79
2021/01/25 12:07:22;;;;;;;29.57;16.40;;;2.00;91.30;;;;;;4968265;28;20204;-78
2021/01/25 12:09:49;;;;;;;27.33;15.77;;;2.00;91.40;;;;;;4968882;28;20287;-79
2021/01/25 12:12:17;;;;;;;32.83;17.27;;;2.00;91.50;;;;;;4908825;28;20231;-81
2021/01/25 12:14:47;;;;;;;32.13;18.73;;;2.00;91.50;;;;;;4969407;28;20672;-78
2021/01/25 12:17:15;;;;;;;36.50;19.43;;;2.10;91.70;;;;;;4968428;28;20200;-79
2021/01/25 12:19:43;;;;;;;33.60;19.53;;;2.10;91.60;;;;;;4972547;28;20618;-79
2021/01/25 12:22:12;;;;;;;30.80;18.13;;;2.10;91.70;;;;;;4922799;28;20223;-76
2021/01/25 12:24:40;;;;;;;37.30;17.70;;;2.10;91.70;;;;;;4990429;28;20203;-79
2021/01/25 12:27:08;;;;;;;37.33;20.87;;;2.10;91.80;;;;;;4993746;28;20210;-79
2021/01/25 12:29:35;;;;;;;30.57;16.70;;;2.10;91.80;;;;;;4996311;28;20200;-82
2021/01/25 12:32:05;;;;;;;26.10;15.07;;;2.10;92.00;;;;;;4906512;28;20223;-80
2021/01/25 12:34:33;;;;;;;32.70;19.63;;;2.10;91.80;;;;;;4968452;28;20313;-78
2021/01/25 12:37:01;;;;;;;33.73;19.37;;;2.10;92.10;;;;;;4983933;28;20219;-77
2021/01/25 12:39:30;;;;;;;36.87;19.30;;;2.10;92.10;;;;;;4967870;28;20279;-78
2021/01/25 12:41:57;;;;;;;30.87;18.47;;;2.10;92.10;;;;;;4982051;28;20217;-79
2021/01/25 12:44:25;;;;;;;35.87;18.67;;;2.10;92.00;;;;;;4981868;28;20408;-79
2021/01/25 12:46:55;;;;;;;33.90;19.80;;;2.10;92.10;;;;;;4957936;28;20208;-78
2021/01/25 12:49:23;;;;;;;33.67;19.03;;;2.10;92.10;;;;;;4972092;28;20200;-79
2021/01/25 12:51:51;;;;;;;35.70;20.27;;;2.10;92.20;;;;;;4961130;28;20226;-77